Time,TemperatureF,DewpointF,PressureIn,WindDirection,WindDirectionDegrees,WindSpeedMPH,WindSpeedGustMPH,Humidity,HourlyPrecipIn,Conditions,Clouds,dailyrainin,SoftwareType,DateUTC
2013-08-08 00:02:00,63.0,57.1,29.97,WSW,247,11.0,14.0,81,0.00,,CLR,0.00,VWS V14.01,2013-08-08 06:02:00,
2013-08-08 00:07:00,63.0,58.1,29.97,SW,225,10.0,14.0,84,0.00,,CLR,0.00,VWS V14.01,2013-08-08 06:07:00,
2013-08-08 00:12:00,63.0,57.8,29.96,WSW,247,9.0,14.0,83,0.00,,CLR,0.00,VWS V14.01,2013-08-08 06:12:00,
2013-08-08 00:17:00,63.0,58.1,29.96,SW,225,7.0,14.0,84,0.00,,CLR,0.00,VWS V14.01,2013-08-08 06:17:00,
2013-08-08 00:22:00,63.0,58.1,29.97,SW,225,6.0,14.0,84,0.00,,CLR,0.00,VWS V14.01,2013-08-08 06:22:00,
2013-08-08 00:27:00,62.0,57.1,29.97,SSW,202,5.0,14.0,84,0.00,,CLR,0.00,VWS V14.01,2013-08-08 06:27:00,
2013-08-08 00:32:00,62.0,57.1,29.96,ESE,112,2.0,3.0,84,0.00,,CLR,0.00,VWS V14.01,2013-08-08 06:32:00,
2013-08-08 00:37:00,62.0,57.1,29.96,ESE,112,6.0,7.0,84,0.00,,CLR,0.00,VWS V14.01,2013-08-08 06:37:00,
2013-08-08 00:42:00,63.0,56.4,29.96,SE,135,4.0,9.0,79,0.00,,CLR,0.00,VWS V14.01,2013-08-08 06:42:00,
2013-08-08 00:47:00,63.0,56.4,29.96,SSE,157,0.0,9.0,79,0.00,,CLR,0.00,VWS V14.01,2013-08-08 06:47:00,
2013-08-08 00:52:00,63.0,56.7,29.96,SE,135,0.0,9.0,80,0.00,,CLR,0.00,VWS V14.01,2013-08-08 06:52:00,
2013-08-08 00:57:00,62.0,56.5,29.96,NE,45,5.0,9.0,82,0.00,,CLR,0.00,VWS V14.01,2013-08-08 06:57:00,
2013-08-08 01:02:00,62.0,55.1,29.97,SSW,202,0.0,3.0,78,0.00,,CLR,0.00,VWS V14.01,2013-08-08 07:02:00,
2013-08-08 01:07:00,62.0,54.7,29.97,South,180,1.0,4.0,77,0.00,,CLR,0.00,VWS V14.01,2013-08-08 07:07:00,
2013-08-08 01:12:00,62.0,54.4,29.97,SW,225,2.0,5.0,76,0.00,,CLR,0.00,VWS V14.01,2013-08-08 07:12:00,
2013-08-08 01:17:00,61.0,55.1,29.97,NNW,337,4.0,6.0,81,0.00,,CLR,0.00,VWS V14.01,2013-08-08 07:17:00,
2013-08-08 01:22:00,61.0,56.1,29.97,NNE,22,6.0,9.0,84,0.00,,CLR,0.00,VWS V14.01,2013-08-08 07:22:00,
2013-08-08 01:27:00,61.0,57.1,29.97,NNE,22,3.0,9.0,87,0.00,,CLR,0.00,VWS V14.01,2013-08-08 07:27:00,
2013-08-08 01:32:00,61.0,57.7,29.98,North,360,7.0,7.0,89,0.00,,CLR,0.00,VWS V14.01,2013-08-08 07:32:00,
2013-08-08 01:37:00,61.0,57.7,29.98,North,360,6.0,7.0,89,0.00,,CLR,0.00,VWS V14.01,2013-08-08 07:37:00,
2013-08-08 01:42:00,61.0,57.7,29.97,North,360,7.0,8.0,89,0.00,,CLR,0.00,VWS V14.01,2013-08-08 07:42:00,
2013-08-08 01:47:00,61.0,57.1,29.97,NNW,337,9.0,9.0,87,0.00,,CLR,0.00,VWS V14.01,2013-08-08 07:47:00,
2013-08-08 01:52:00,61.0,55.5,29.98,NNW,337,9.0,10.0,82,0.00,,CLR,0.00,VWS V14.01,2013-08-08 07:52:00,
2013-08-08 01:57:00,60.0,53.1,29.98,NW,315,7.0,10.0,78,0.00,,CLR,0.00,VWS V14.01,2013-08-08 07:57:00,
2013-08-08 02:02:00,59.0,50.4,29.99,NW,315,6.0,7.0,73,0.00,,CLR,0.00,VWS V14.01,2013-08-08 08:02:00,
2013-08-08 02:07:00,60.0,50.2,29.99,WNW,292,7.0,7.0,70,0.00,,CLR,0.00,VWS V14.01,2013-08-08 08:07:00,
2013-08-08 02:12:00,60.0,51.0,29.99,NW,315,7.0,9.0,72,0.00,,CLR,0.00,VWS V14.01,2013-08-08 08:12:00,
2013-08-08 02:17:00,59.0,41.9,29.99,NW,315,7.0,9.0,53,0.00,,CLR,0.00,VWS V14.01,2013-08-08 08:17:00,
2013-08-08 02:23:00,60.0,45.7,29.98,WNW,292,7.0,10.0,59,0.00,,CLR,0.00,VWS V14.01,2013-08-08 08:23:00,
2013-08-08 02:28:00,59.0,42.4,29.98,WNW,292,7.0,10.0,54,0.00,,CLR,0.00,VWS V14.01,2013-08-08 08:28:00,
2013-08-08 02:33:00,59.0,38.3,29.98,WNW,292,9.0,11.0,46,0.00,,CLR,0.00,VWS V14.01,2013-08-08 08:33:00,
2013-08-08 02:38:00,58.0,34.5,29.98,NW,315,6.0,11.0,41,0.00,,CLR,0.00,VWS V14.01,2013-08-08 08:38:00,
2013-08-08 02:43:00,59.0,32.1,29.98,West,270,7.0,12.0,36,0.00,,CLR,0.00,VWS V14.01,2013-08-08 08:43:00,
2013-08-08 02:48:00,60.0,39.7,29.98,WNW,292,9.0,12.0,47,0.00,,CLR,0.00,VWS V14.01,2013-08-08 08:48:00,
2013-08-08 02:53:00,59.0,39.4,29.97,West,270,9.0,12.0,48,0.00,,CLR,0.00,VWS V14.01,2013-08-08 08:53:00,
2013-08-08 02:58:00,59.0,39.9,29.97,WNW,292,13.0,13.0,49,0.00,,CLR,0.00,VWS V14.01,2013-08-08 08:58:00,
2013-08-08 03:03:00,59.0,41.9,29.97,WNW,292,11.0,13.0,53,0.00,,CLR,0.00,VWS V14.01,2013-08-08 09:03:00,
2013-08-08 03:08:00,59.0,39.4,29.97,NW,315,6.0,13.0,48,0.00,,CLR,0.00,VWS V14.01,2013-08-08 09:08:00,
2013-08-08 03:13:00,59.0,39.4,29.97,WNW,292,5.0,13.0,48,0.00,,CLR,0.00,VWS V14.01,2013-08-08 09:13:00,
2013-08-08 03:18:00,59.0,37.1,29.97,WNW,292,0.0,13.0,44,0.00,,CLR,0.00,VWS V14.01,2013-08-08 09:18:00,
2013-08-08 03:23:00,58.0,33.8,29.97,West,270,0.0,13.0,40,0.00,,CLR,0.00,VWS V14.01,2013-08-08 09:23:00,
2013-08-08 03:28:00,58.0,27.6,29.97,WNW,292,0.0,13.0,31,0.00,,CLR,0.00,VWS V14.01,2013-08-08 09:28:00,
2013-08-08 03:33:00,58.0,26.0,29.97,WNW,292,4.0,6.0,29,0.00,,CLR,0.00,VWS V14.01,2013-08-08 09:33:00,
2013-08-08 03:38:00,58.0,24.2,29.97,WNW,292,3.0,6.0,27,0.00,,CLR,0.00,VWS V14.01,2013-08-08 09:38:00,
2013-08-08 03:43:00,57.0,25.9,29.97,NW,315,3.0,6.0,30,0.00,,CLR,0.00,VWS V14.01,2013-08-08 09:43:00,
2013-08-08 03:48:00,57.0,24.2,29.97,NW,315,6.0,8.0,28,0.00,,CLR,0.00,VWS V14.01,2013-08-08 09:48:00,
2013-08-08 03:53:00,58.0,28.3,29.97,NNW,337,5.0,8.0,32,0.00,,CLR,0.00,VWS V14.01,2013-08-08 09:53:00,
2013-08-08 03:58:00,58.0,31.9,29.97,NW,315,2.0,8.0,37,0.00,,CLR,0.00,VWS V14.01,2013-08-08 09:58:00,
2013-08-08 04:03:00,58.0,34.5,29.97,North,360,3.0,7.0,41,0.00,,CLR,0.00,VWS V14.01,2013-08-08 10:03:00,
2013-08-08 04:08:00,57.0,29.6,29.97,NNW,337,5.0,7.0,35,0.00,,CLR,0.00,VWS V14.01,2013-08-08 10:08:00,
2013-08-08 04:13:00,57.0,28.2,29.97,NNW,337,6.0,7.0,33,0.00,,CLR,0.00,VWS V14.01,2013-08-08 10:13:00,
2013-08-08 04:18:00,57.0,23.4,29.97,NW,315,6.0,7.0,27,0.00,,CLR,0.00,VWS V14.01,2013-08-08 10:18:00,
2013-08-08 04:23:00,57.0,22.5,29.97,NW,315,7.0,7.0,26,0.00,,CLR,0.00,VWS V14.01,2013-08-08 10:23:00,
2013-08-08 04:28:00,58.0,34.5,29.97,NW,315,8.0,12.0,41,0.00,,CLR,0.00,VWS V14.01,2013-08-08 10:28:00,
2013-08-08 04:33:00,58.0,42.4,29.97,NW,315,10.0,12.0,56,0.00,,CLR,0.00,VWS V14.01,2013-08-08 10:33:00,
2013-08-08 04:38:00,58.0,40.0,29.97,NW,315,11.0,13.0,51,0.00,,CLR,0.00,VWS V14.01,2013-08-08 10:38:00,
2013-08-08 04:43:00,58.0,39.0,29.97,NW,315,11.0,16.0,49,0.00,,CLR,0.00,VWS V14.01,2013-08-08 10:43:00,
2013-08-08 04:48:00,58.0,41.9,29.97,NW,315,14.0,16.0,55,0.00,,CLR,0.00,VWS V14.01,2013-08-08 10:48:00,
2013-08-08 04:53:00,58.0,43.3,29.97,NW,315,13.0,16.0,58,0.00,,CLR,0.00,VWS V14.01,2013-08-08 10:53:00,
2013-08-08 04:58:00,58.0,41.9,29.97,NW,315,10.0,16.0,55,0.00,,CLR,0.00,VWS V14.01,2013-08-08 10:58:00,
2013-08-08 05:03:00,57.0,39.1,29.98,NW,315,6.0,12.0,51,0.00,,CLR,0.00,VWS V14.01,2013-08-08 11:03:00,
2013-08-08 05:08:00,57.0,39.1,29.98,SE,135,0.0,12.0,51,0.00,,CLR,0.00,VWS V14.01,2013-08-08 11:08:00,
2013-08-08 05:13:00,57.0,34.8,29.99,ESE,112,0.0,12.0,43,0.00,,CLR,0.00,VWS V14.01,2013-08-08 11:13:00,
2013-08-08 05:18:00,58.0,25.1,29.99,NNW,337,9.0,13.0,28,0.00,,CLR,0.00,VWS V14.01,2013-08-08 11:18:00,
2013-08-08 05:24:00,58.0,20.4,29.99,NNW,337,13.0,15.0,23,0.00,,CLR,0.00,VWS V14.01,2013-08-08 11:24:00,
2013-08-08 05:28:00,58.0,18.3,29.99,NNW,337,9.0,15.0,21,0.00,,CLR,0.00,VWS V14.01,2013-08-08 11:28:00,
2013-08-08 05:33:00,58.0,20.4,30.00,North,360,6.0,8.0,23,0.00,,CLR,0.00,VWS V14.01,2013-08-08 11:33:00,
2013-08-08 05:38:00,57.0,13.9,30.00,NNW,337,6.0,9.0,18,0.00,,CLR,0.00,VWS V14.01,2013-08-08 11:38:00,
2013-08-08 05:44:00,57.0,9.8,30.00,NNW,337,5.0,9.0,15,0.00,,CLR,0.00,VWS V14.01,2013-08-08 11:44:00,
2013-08-08 05:49:00,57.0,4.9,30.00,NNW,337,6.0,9.0,12,0.00,,CLR,0.00,VWS V14.01,2013-08-08 11:49:00,
2013-08-08 05:54:00,57.0,1.0,30.01,NNW,337,6.0,9.0,10,0.00,,CLR,0.00,VWS V14.01,2013-08-08 11:54:00,
2013-08-08 05:59:00,57.0,-1.3,30.01,NW,315,6.0,9.0,9,0.00,,CLR,0.00,VWS V14.01,2013-08-08 11:59:00,
2013-08-08 06:04:00,57.0,-6.5,30.01,NW,315,9.0,12.0,7,0.00,,CLR,0.00,VWS V14.01,2013-08-08 12:04:00,
2013-08-08 06:09:00,58.0,-3.0,30.01,NW,315,8.0,12.0,8,0.00,,CLR,0.00,VWS V14.01,2013-08-08 12:09:00,
2013-08-08 06:14:00,58.0,5.7,30.01,NW,315,9.0,12.0,12,0.00,,CLR,0.00,VWS V14.01,2013-08-08 12:14:00,
2013-08-08 06:19:00,58.0,10.6,30.01,NW,315,6.0,12.0,15,0.00,,CLR,0.00,VWS V14.01,2013-08-08 12:19:00,
2013-08-08 06:24:00,57.0,8.3,30.01,NW,315,6.0,12.0,14,0.00,,CLR,0.00,VWS V14.01,2013-08-08 12:24:00,
2013-08-08 06:29:00,57.0,4.9,30.01,NW,315,9.0,12.0,12,0.00,,CLR,0.00,VWS V14.01,2013-08-08 12:29:00,
2013-08-08 06:34:00,58.0,5.7,30.01,NW,315,13.0,13.0,12,0.00,,CLR,0.00,VWS V14.01,2013-08-08 12:34:00,
2013-08-08 06:39:00,58.0,20.4,30.01,NW,315,13.0,15.0,23,0.00,,CLR,0.00,VWS V14.01,2013-08-08 12:39:00,
2013-08-08 06:44:00,58.0,22.4,30.01,NW,315,13.0,15.0,25,0.00,,CLR,0.00,VWS V14.01,2013-08-08 12:44:00,
2013-08-08 06:49:00,59.0,30.0,30.01,NW,315,11.0,16.0,33,0.00,,CLR,0.00,VWS V14.01,2013-08-08 12:49:00,
2013-08-08 06:54:00,59.0,37.1,30.01,NNW,337,12.0,16.0,44,0.00,,CLR,0.00,VWS V14.01,2013-08-08 12:54:00,
2013-08-08 06:59:00,59.0,38.8,30.01,NW,315,13.0,16.0,47,0.00,,CLR,0.00,VWS V14.01,2013-08-08 12:59:00,
2013-08-08 07:04:00,60.0,41.3,30.01,NW,315,12.0,15.0,50,0.00,,CLR,0.00,VWS V14.01,2013-08-08 13:04:00,
2013-08-08 07:09:00,60.0,40.8,30.01,NW,315,12.0,15.0,49,0.00,,CLR,0.00,VWS V14.01,2013-08-08 13:09:00,
2013-08-08 07:14:00,60.0,41.3,30.01,NW,315,11.0,15.0,50,0.00,,CLR,0.00,VWS V14.01,2013-08-08 13:14:00,
2013-08-08 07:19:00,61.0,44.2,30.01,NW,315,12.0,15.0,54,0.00,,CLR,0.00,VWS V14.01,2013-08-08 13:19:00,
2013-08-08 07:24:00,61.0,53.8,30.01,NNW,337,14.0,18.0,77,0.00,,CLR,0.00,VWS V14.01,2013-08-08 13:24:00,
2013-08-08 07:29:00,62.0,55.4,30.01,NNW,337,14.0,18.0,79,0.00,,CLR,0.00,VWS V14.01,2013-08-08 13:29:00,
2013-08-08 07:34:00,63.0,58.1,30.00,NNW,337,12.0,16.0,84,0.00,,CLR,0.00,VWS V14.01,2013-08-08 13:34:00,
2013-08-08 07:39:00,63.0,59.1,30.00,North,360,13.0,16.0,87,0.00,,CLR,0.00,VWS V14.01,2013-08-08 13:39:00,
2013-08-08 07:44:00,63.0,58.8,30.00,NNW,337,12.0,16.0,86,0.00,,CLR,0.00,VWS V14.01,2013-08-08 13:44:00,
2013-08-08 07:49:00,63.0,59.1,30.00,NNW,337,13.0,16.0,87,0.00,,CLR,0.00,VWS V14.01,2013-08-08 13:49:00,
2013-08-08 07:54:00,63.0,59.7,30.00,North,360,13.0,16.0,89,0.00,,CLR,0.00,VWS V14.01,2013-08-08 13:54:00,
2013-08-08 07:59:00,64.0,61.0,30.00,NNW,337,12.0,16.0,90,0.00,,CLR,0.00,VWS V14.01,2013-08-08 13:59:00,
2013-08-08 08:04:00,62.0,58.7,30.00,NW,315,16.0,16.0,89,0.00,,CLR,0.00,VWS V14.01,2013-08-08 14:04:00,
2013-08-08 08:09:00,63.0,59.7,30.00,NW,315,12.0,16.0,89,0.00,,CLR,0.00,VWS V14.01,2013-08-08 14:09:00,
2013-08-08 08:14:00,63.0,59.7,30.00,NW,315,15.0,17.0,89,0.00,,CLR,0.00,VWS V14.01,2013-08-08 14:14:00,
2013-08-08 08:19:00,64.0,61.0,30.00,NNW,337,13.0,17.0,90,0.00,,CLR,0.00,VWS V14.01,2013-08-08 14:19:00,
2013-08-08 08:24:00,63.0,59.7,30.01,NNW,337,14.0,17.0,89,0.00,,CLR,0.00,VWS V14.01,2013-08-08 14:24:00,
2013-08-08 08:30:00,63.0,59.7,30.01,NNW,337,15.0,17.0,89,0.00,,CLR,0.00,VWS V14.01,2013-08-08 14:30:00,
2013-08-08 08:35:00,64.0,61.0,30.00,North,360,14.0,18.0,90,0.00,,CLR,0.00,VWS V14.01,2013-08-08 14:35:00,
2013-08-08 08:40:00,64.0,61.0,30.00,NW,315,15.0,18.0,90,0.00,,CLR,0.00,VWS V14.01,2013-08-08 14:40:00,
2013-08-08 08:45:00,64.0,61.0,30.01,NNW,337,14.0,18.0,90,0.00,,CLR,0.00,VWS V14.01,2013-08-08 14:45:00,
2013-08-08 08:50:00,64.0,60.7,30.01,NNW,337,14.0,18.0,89,0.00,,CLR,0.00,VWS V14.01,2013-08-08 14:50:00,
2013-08-08 08:55:00,65.0,61.7,30.00,NNW,337,13.0,18.0,89,0.00,,CLR,0.00,VWS V14.01,2013-08-08 14:55:00,
2013-08-08 09:00:00,66.0,62.3,30.00,NNW,337,12.0,16.0,88,0.00,,CLR,0.00,VWS V14.01,2013-08-08 15:00:00,
2013-08-08 09:05:00,65.0,60.7,30.00,NNW,337,16.0,20.0,86,0.00,,CLR,0.00,VWS V14.01,2013-08-08 15:05:00,
2013-08-08 09:10:00,66.0,62.0,30.00,NW,315,14.0,20.0,87,0.00,,CLR,0.00,VWS V14.01,2013-08-08 15:10:00,
2013-08-08 09:15:00,66.0,61.7,30.01,NNW,337,12.0,20.0,86,0.00,,CLR,0.00,VWS V14.01,2013-08-08 15:15:00,
2013-08-08 09:20:00,66.0,61.0,30.01,NNW,337,15.0,20.0,84,0.00,,CLR,0.00,VWS V14.01,2013-08-08 15:20:00,
2013-08-08 09:25:00,67.0,61.0,29.99,NNW,337,12.0,20.0,81,0.00,,CLR,0.00,VWS V14.01,2013-08-08 15:25:00,
2013-08-08 09:30:00,66.0,61.0,29.99,NW,315,16.0,17.0,84,0.00,,CLR,0.00,VWS V14.01,2013-08-08 15:30:00,
2013-08-08 09:35:00,67.0,60.3,29.99,North,360,13.0,19.0,79,0.00,,CLR,0.00,VWS V14.01,2013-08-08 15:35:00,
2013-08-08 09:40:00,67.0,62.0,29.99,NNW,337,14.0,21.0,84,0.00,,CLR,0.00,VWS V14.01,2013-08-08 15:40:00,
2013-08-08 09:45:00,67.0,59.6,29.99,North,360,15.0,21.0,77,0.00,,CLR,0.00,VWS V14.01,2013-08-08 15:45:00,
2013-08-08 09:50:00,67.0,60.6,29.99,NNW,337,14.0,21.0,80,0.00,,CLR,0.00,VWS V14.01,2013-08-08 15:50:00,
2013-08-08 09:55:00,68.0,59.8,29.99,North,360,15.0,21.0,75,0.00,,CLR,0.00,VWS V14.01,2013-08-08 15:55:00,
2013-08-08 10:00:00,69.0,60.0,29.99,North,360,15.0,15.0,73,0.00,,CLR,0.00,VWS V14.01,2013-08-08 16:00:00,
2013-08-08 10:05:00,69.0,60.4,29.99,North,360,12.0,17.0,74,0.00,,CLR,0.00,VWS V14.01,2013-08-08 16:05:00,
2013-08-08 10:10:00,69.0,59.2,29.99,North,360,12.0,19.0,71,0.00,,CLR,0.00,VWS V14.01,2013-08-08 16:10:00,
2013-08-08 10:15:00,70.0,59.8,29.98,North,360,10.0,19.0,70,0.00,,CLR,0.00,VWS V14.01,2013-08-08 16:15:00,
2013-08-08 10:20:00,69.0,58.8,29.98,North,360,12.0,19.0,70,0.00,,CLR,0.00,VWS V14.01,2013-08-08 16:20:00,
2013-08-08 10:25:00,70.0,60.2,29.98,North,360,11.0,19.0,71,0.00,,CLR,0.00,VWS V14.01,2013-08-08 16:25:00,
2013-08-08 10:30:00,70.0,58.5,29.98,North,360,15.0,16.0,67,0.00,,CLR,0.00,VWS V14.01,2013-08-08 16:30:00,
2013-08-08 10:35:00,70.0,59.8,29.98,NNW,337,8.0,16.0,70,0.00,,CLR,0.00,VWS V14.01,2013-08-08 16:35:00,
2013-08-08 10:40:00,70.0,59.8,29.98,North,360,15.0,16.0,70,0.00,,CLR,0.00,VWS V14.01,2013-08-08 16:40:00,
2013-08-08 10:45:00,71.0,59.9,29.97,NNE,22,9.0,16.0,68,0.00,,CLR,0.00,VWS V14.01,2013-08-08 16:45:00,
2013-08-08 10:50:00,71.0,59.5,29.97,NW,315,9.0,16.0,67,0.00,,CLR,0.00,VWS V14.01,2013-08-08 16:50:00,
2013-08-08 10:55:00,70.0,60.2,29.98,NNW,337,15.0,16.0,71,0.00,,CLR,0.00,VWS V14.01,2013-08-08 16:55:00,
2013-08-08 11:00:00,71.0,59.1,29.98,North,360,9.0,16.0,66,0.00,,CLR,0.00,VWS V14.01,2013-08-08 17:00:00,
2013-08-08 11:05:00,72.0,59.6,29.97,North,360,12.0,16.0,65,0.00,,CLR,0.00,VWS V14.01,2013-08-08 17:05:00,
2013-08-08 11:10:00,72.0,60.0,29.97,North,360,12.0,16.0,66,0.00,,CLR,0.00,VWS V14.01,2013-08-08 17:10:00,
2013-08-08 11:15:00,72.0,58.7,29.97,NNW,337,13.0,16.0,63,0.00,,CLR,0.00,VWS V14.01,2013-08-08 17:15:00,
2013-08-08 11:20:00,73.0,61.4,29.97,NNE,22,12.0,16.0,67,0.00,,CLR,0.00,VWS V14.01,2013-08-08 17:20:00,
2013-08-08 11:26:00,73.0,60.1,29.96,North,360,14.0,16.0,64,0.00,,CLR,0.00,VWS V14.01,2013-08-08 17:26:00,
2013-08-08 11:31:00,72.0,58.7,29.96,North,360,12.0,13.0,63,0.00,,CLR,0.00,VWS V14.01,2013-08-08 17:31:00,
2013-08-08 11:36:00,72.0,59.2,29.96,NNW,337,16.0,16.0,64,0.00,,CLR,0.00,VWS V14.01,2013-08-08 17:36:00,
2013-08-08 11:41:00,72.0,59.6,29.96,North,360,13.0,16.0,65,0.00,,CLR,0.00,VWS V14.01,2013-08-08 17:41:00,
2013-08-08 11:46:00,73.0,59.7,29.96,North,360,12.0,16.0,63,0.00,,CLR,0.00,VWS V14.01,2013-08-08 17:46:00,
2013-08-08 11:51:00,73.0,59.7,29.96,North,360,12.0,16.0,63,0.00,,CLR,0.00,VWS V14.01,2013-08-08 17:51:00,
2013-08-08 11:56:00,73.0,59.2,29.96,North,360,17.0,17.0,62,0.00,,FEW034,0.00,VWS V14.01,2013-08-08 17:56:00,
2013-08-08 12:01:00,73.0,58.8,29.96,NE,45,12.0,12.0,61,0.00,,FEW034,0.00,VWS V14.01,2013-08-08 18:01:00,
2013-08-08 12:06:00,73.0,59.2,29.95,North,360,11.0,18.0,62,0.00,,FEW034,0.00,VWS V14.01,2013-08-08 18:06:00,
2013-08-08 12:11:00,73.0,58.8,29.95,North,360,10.0,18.0,61,0.00,,FEW034,0.00,VWS V14.01,2013-08-08 18:11:00,
2013-08-08 12:16:00,74.0,59.7,29.95,North,360,10.0,18.0,61,0.00,,FEW034,0.00,VWS V14.01,2013-08-08 18:16:00,
2013-08-08 12:21:00,74.0,59.2,29.95,North,360,13.0,18.0,60,0.00,,FEW034,0.00,VWS V14.01,2013-08-08 18:21:00,
2013-08-08 12:26:00,75.0,60.7,29.95,NE,45,10.0,18.0,61,0.00,,FEW034,0.00,VWS V14.01,2013-08-08 18:26:00,
2013-08-08 12:31:00,73.0,60.1,29.95,NNE,22,11.0,15.0,64,0.00,,FEW034,0.00,VWS V14.01,2013-08-08 18:31:00,
2013-08-08 12:36:00,74.0,59.7,29.94,NNE,22,9.0,17.0,61,0.00,,FEW034,0.00,VWS V14.01,2013-08-08 18:36:00,
2013-08-08 12:41:00,74.0,58.3,29.94,North,360,4.0,17.0,58,0.00,,FEW034,0.00,VWS V14.01,2013-08-08 18:41:00,
2013-08-08 12:46:00,74.0,60.6,29.94,NE,45,14.0,17.0,63,0.00,,FEW034,0.00,VWS V14.01,2013-08-08 18:46:00,
2013-08-08 12:51:00,74.0,58.3,29.94,North,360,11.0,17.0,58,0.00,,FEW034,0.00,VWS V14.01,2013-08-08 18:51:00,
2013-08-08 12:56:00,74.0,58.3,29.94,NE,45,4.0,17.0,58,0.00,,FEW041,0.00,VWS V14.01,2013-08-08 18:56:00,
2013-08-08 13:01:00,76.0,58.7,29.93,North,360,9.0,11.0,55,0.00,,FEW041,0.00,VWS V14.01,2013-08-08 19:01:00,
2013-08-08 13:06:00,75.0,58.8,29.93,NNW,337,7.0,16.0,57,0.00,,FEW041,0.00,VWS V14.01,2013-08-08 19:06:00,
2013-08-08 13:11:00,76.0,58.2,29.93,North,360,10.0,16.0,54,0.00,,FEW041,0.00,VWS V14.01,2013-08-08 19:11:00,
2013-08-08 13:16:00,75.0,59.2,29.93,North,360,10.0,16.0,58,0.00,,FEW041,0.00,VWS V14.01,2013-08-08 19:16:00,
2013-08-08 13:21:00,75.0,56.7,29.94,North,360,11.0,16.0,53,0.00,,FEW041,0.00,VWS V14.01,2013-08-08 19:21:00,
2013-08-08 13:26:00,75.0,58.3,29.94,NE,45,4.0,16.0,56,0.00,,FEW041,0.00,VWS V14.01,2013-08-08 19:26:00,
2013-08-08 13:31:00,77.0,57.5,29.92,North,360,12.0,15.0,51,0.00,,FEW041,0.00,VWS V14.01,2013-08-08 19:31:00,
2013-08-08 13:36:00,73.0,56.9,29.92,NNE,22,9.0,17.0,57,0.00,,FEW041,0.00,VWS V14.01,2013-08-08 19:36:00,
2013-08-08 13:41:00,74.0,57.3,29.94,North,360,0.0,17.0,56,0.00,,FEW041,0.00,VWS V14.01,2013-08-08 19:41:00,
2013-08-08 13:46:00,75.0,58.3,29.94,North,360,3.0,17.0,56,0.00,,FEW041,0.00,VWS V14.01,2013-08-08 19:46:00,
2013-08-08 13:51:00,74.0,57.3,29.93,NE,45,13.0,17.0,56,0.00,,FEW041,0.00,VWS V14.01,2013-08-08 19:51:00,
2013-08-08 13:56:00,76.0,58.2,29.93,North,360,9.0,17.0,54,0.00,,CLR,0.00,VWS V14.01,2013-08-08 19:56:00,
2013-08-08 14:01:00,76.0,58.2,29.93,North,360,9.0,11.0,54,0.00,,CLR,0.00,VWS V14.01,2013-08-08 20:01:00,
2013-08-08 14:06:00,77.0,58.0,29.93,North,360,6.0,12.0,52,0.00,,CLR,0.00,VWS V14.01,2013-08-08 20:06:00,
2013-08-08 14:11:00,76.0,61.1,29.92,NE,45,11.0,17.0,60,0.00,,CLR,0.00,VWS V14.01,2013-08-08 20:11:00,
2013-08-08 14:16:00,76.0,57.7,29.92,North,360,9.0,17.0,53,0.00,,CLR,0.00,VWS V14.01,2013-08-08 20:16:00,
2013-08-08 14:21:00,77.0,58.6,29.91,NE,45,2.0,17.0,53,0.00,,CLR,0.00,VWS V14.01,2013-08-08 20:21:00,
2013-08-08 14:26:00,75.0,56.7,29.91,North,360,9.0,17.0,53,0.00,,CLR,0.00,VWS V14.01,2013-08-08 20:26:00,
2013-08-08 14:31:00,75.0,56.7,29.93,NE,45,7.0,9.0,53,0.00,,CLR,0.00,VWS V14.01,2013-08-08 20:31:00,
2013-08-08 14:36:00,74.0,58.3,29.93,North,360,8.0,13.0,58,0.00,,CLR,0.00,VWS V14.01,2013-08-08 20:36:00,
2013-08-08 14:42:00,74.0,57.3,29.93,North,360,7.0,14.0,56,0.00,,CLR,0.00,VWS V14.01,2013-08-08 20:42:00,
2013-08-08 14:47:00,74.0,56.8,29.93,North,360,6.0,14.0,55,0.00,,CLR,0.00,VWS V14.01,2013-08-08 20:47:00,
2013-08-08 14:52:00,74.0,57.3,29.93,NNE,22,5.0,14.0,56,0.00,,CLR,0.00,VWS V14.01,2013-08-08 20:52:00,
2013-08-08 14:57:00,76.0,57.7,29.93,North,360,7.0,14.0,53,0.00,,CLR,0.00,VWS V14.01,2013-08-08 20:57:00,
2013-08-08 15:02:00,76.0,57.7,29.92,NE,45,9.0,10.0,53,0.00,,FEW050,0.00,VWS V14.01,2013-08-08 21:02:00,
2013-08-08 15:07:00,75.0,58.3,29.92,NNE,22,6.0,11.0,56,0.00,,FEW050,0.00,VWS V14.01,2013-08-08 21:07:00,
2013-08-08 15:12:00,78.0,57.9,29.91,NE,45,12.0,13.0,50,0.00,,FEW050,0.00,VWS V14.01,2013-08-08 21:12:00,
2013-08-08 15:17:00,76.0,57.1,29.91,NE,45,3.0,13.0,52,0.00,,FEW050,0.00,VWS V14.01,2013-08-08 21:17:00,
2013-08-08 15:22:00,76.0,57.7,29.91,NE,45,8.0,13.0,53,0.00,,FEW050,0.00,VWS V14.01,2013-08-08 21:22:00,
2013-08-08 15:27:00,77.0,57.0,29.91,NNE,22,7.0,13.0,50,0.00,,FEW050,0.00,VWS V14.01,2013-08-08 21:27:00,
2013-08-08 15:32:00,77.0,58.6,29.91,ENE,67,10.0,10.0,53,0.00,,FEW050,0.00,VWS V14.01,2013-08-08 21:32:00,
2013-08-08 15:37:00,75.0,58.3,29.91,NE,45,6.0,12.0,56,0.00,,FEW050,0.00,VWS V14.01,2013-08-08 21:37:00,
2013-08-08 15:42:00,75.0,57.8,29.92,ENE,67,10.0,12.0,55,0.00,,FEW050,0.00,VWS V14.01,2013-08-08 21:42:00,
2013-08-08 15:47:00,76.0,60.2,29.92,ENE,67,6.0,14.0,58,0.00,,FEW050,0.00,VWS V14.01,2013-08-08 21:47:00,
2013-08-08 15:52:00,76.0,56.6,29.90,NE,45,10.0,14.0,51,0.00,,FEW050,0.00,VWS V14.01,2013-08-08 21:52:00,
2013-08-08 15:58:00,76.0,56.6,29.90,NE,45,6.0,14.0,51,0.00,,FEW050,0.00,VWS V14.01,2013-08-08 21:58:00,
2013-08-08 16:03:00,76.0,56.0,29.91,NW,315,2.0,9.0,50,0.00,,SCT050,0.00,VWS V14.01,2013-08-08 22:03:00,
2013-08-08 16:08:00,76.0,56.6,29.91,ESE,112,5.0,9.0,51,0.00,,SCT050,0.00,VWS V14.01,2013-08-08 22:08:00,
2013-08-08 16:13:00,75.0,57.8,29.92,NE,45,9.0,11.0,55,0.00,,SCT050,0.00,VWS V14.01,2013-08-08 22:13:00,
2013-08-08 16:18:00,75.0,58.3,29.92,NE,45,6.0,11.0,56,0.00,,SCT050,0.00,VWS V14.01,2013-08-08 22:18:00,
2013-08-08 16:23:00,76.0,58.7,29.91,East,90,7.0,12.0,55,0.00,,SCT050,0.00,VWS V14.01,2013-08-08 22:23:00,
2013-08-08 16:28:00,77.0,58.6,29.91,NE,45,7.0,12.0,53,0.00,,SCT050,0.00,VWS V14.01,2013-08-08 22:28:00,
2013-08-08 16:33:00,76.0,57.1,29.91,East,90,5.0,10.0,52,0.00,,SCT050,0.00,VWS V14.01,2013-08-08 22:33:00,
2013-08-08 16:38:00,75.0,56.7,29.91,ESE,112,3.0,10.0,53,0.00,,SCT050,0.00,VWS V14.01,2013-08-08 22:38:00,
2013-08-08 16:43:00,76.0,58.7,29.91,ENE,67,8.0,10.0,55,0.00,,SCT050,0.00,VWS V14.01,2013-08-08 22:43:00,
2013-08-08 16:48:00,76.0,57.7,29.91,ENE,67,6.0,14.0,53,0.00,,SCT050,0.00,VWS V14.01,2013-08-08 22:48:00,
2013-08-08 16:53:00,76.0,57.1,29.91,ENE,67,5.0,14.0,52,0.00,,SCT050,0.00,VWS V14.01,2013-08-08 22:53:00,
2013-08-08 16:58:00,75.0,57.8,29.91,NE,45,9.0,14.0,55,0.00,,SCT050,0.00,VWS V14.01,2013-08-08 22:58:00,
2013-08-08 17:03:00,75.0,56.7,29.92,NE,45,6.0,9.0,53,0.00,,BKN060,0.00,VWS V14.01,2013-08-08 23:03:00,
2013-08-08 17:08:00,75.0,56.7,29.92,ENE,67,7.0,12.0,53,0.00,,BKN060,0.00,VWS V14.01,2013-08-08 23:08:00,
2013-08-08 17:14:00,74.0,57.8,29.91,NE,45,10.0,12.0,57,0.00,,BKN060,0.00,VWS V14.01,2013-08-08 23:14:00,
2013-08-08 17:19:00,74.0,57.3,29.91,ENE,67,7.0,12.0,56,0.00,,BKN060,0.00,VWS V14.01,2013-08-08 23:19:00,
2013-08-08 17:24:00,74.0,57.3,29.93,ENE,67,7.0,12.0,56,0.00,,BKN060,0.00,VWS V14.01,2013-08-08 23:24:00,
2013-08-08 17:29:00,74.0,57.3,29.93,ENE,67,4.0,12.0,56,0.00,,BKN060,0.00,VWS V14.01,2013-08-08 23:29:00,
2013-08-08 17:34:00,74.0,58.3,29.93,ENE,67,5.0,8.0,58,0.00,,BKN060,0.00,VWS V14.01,2013-08-08 23:34:00,
2013-08-08 17:39:00,74.0,58.3,29.93,NE,45,4.0,9.0,58,0.00,,BKN060,0.00,VWS V14.01,2013-08-08 23:39:00,
2013-08-08 17:44:00,74.0,57.3,29.93,East,90,6.0,9.0,56,0.00,,BKN060,0.00,VWS V14.01,2013-08-08 23:44:00,
2013-08-08 17:49:00,74.0,58.3,29.93,ENE,67,6.0,10.0,58,0.00,,BKN060,0.00,VWS V14.01,2013-08-08 23:49:00,
2013-08-08 17:54:00,74.0,58.3,29.93,ENE,67,7.0,10.0,58,0.00,,BKN060,0.00,VWS V14.01,2013-08-08 23:54:00,
2013-08-08 17:59:00,74.0,58.8,29.93,ENE,67,6.0,10.0,59,0.00,,BKN060,0.00,VWS V14.01,2013-08-08 23:59:00,
2013-08-08 18:05:00,74.0,59.2,29.93,ENE,67,6.0,8.0,60,0.00,,FEW060,0.00,VWS V14.01,2013-08-09 00:05:00,
2013-08-08 18:10:00,74.0,58.3,29.93,ENE,67,7.0,9.0,58,0.00,,FEW060,0.00,VWS V14.01,2013-08-09 00:10:00,
2013-08-08 18:15:00,74.0,58.3,29.93,East,90,10.0,10.0,58,0.00,,FEW060,0.00,VWS V14.01,2013-08-09 00:15:00,
2013-08-08 18:20:00,74.0,58.3,29.93,ENE,67,8.0,11.0,58,0.00,,FEW060,0.00,VWS V14.01,2013-08-09 00:20:00,
2013-08-08 18:25:00,74.0,58.3,29.93,ENE,67,8.0,11.0,58,0.00,,FEW060,0.00,VWS V14.01,2013-08-09 00:25:00,
2013-08-08 18:30:00,74.0,58.3,29.93,East,90,9.0,12.0,58,0.00,,FEW060,0.00,VWS V14.01,2013-08-09 00:30:00,
2013-08-08 18:35:00,73.0,58.8,29.94,East,90,10.0,15.0,61,0.00,,FEW060,0.00,VWS V14.01,2013-08-09 00:35:00,
2013-08-08 18:40:00,73.0,58.3,29.94,East,90,7.0,15.0,60,0.00,,FEW060,0.00,VWS V14.01,2013-08-09 00:40:00,
2013-08-08 18:45:00,73.0,58.8,29.95,East,90,10.0,15.0,61,0.00,,FEW060,0.00,VWS V14.01,2013-08-09 00:45:00,
2013-08-08 18:50:00,73.0,58.8,29.95,ENE,67,9.0,15.0,61,0.00,,FEW060,0.00,VWS V14.01,2013-08-09 00:50:00,
2013-08-08 18:55:00,73.0,59.2,29.95,East,90,6.0,15.0,62,0.00,,BKN060,0.00,VWS V14.01,2013-08-09 00:55:00,
2013-08-08 19:00:00,72.0,58.7,29.95,East,90,6.0,9.0,63,0.00,,BKN060,0.00,VWS V14.01,2013-08-09 01:00:00,
2013-08-08 19:06:00,72.0,59.2,29.95,East,90,5.0,9.0,64,0.00,,BKN060,0.00,VWS V14.01,2013-08-09 01:06:00,
2013-08-08 19:11:00,72.0,59.6,29.95,ENE,67,6.0,9.0,65,0.00,,BKN060,0.00,VWS V14.01,2013-08-09 01:11:00,
2013-08-08 19:16:00,71.0,58.7,29.95,ENE,67,8.0,11.0,65,0.00,,BKN060,0.00,VWS V14.01,2013-08-09 01:16:00,
2013-08-08 19:21:00,71.0,59.1,29.96,East,90,9.0,11.0,66,0.00,,BKN060,0.00,VWS V14.01,2013-08-09 01:21:00,
2013-08-08 19:26:00,71.0,59.9,29.96,East,90,4.0,11.0,68,0.00,,BKN060,0.00,VWS V14.01,2013-08-09 01:26:00,
2013-08-08 19:31:00,71.0,59.9,29.97,East,90,6.0,7.0,68,0.00,,BKN060,0.00,VWS V14.01,2013-08-09 01:31:00,
2013-08-08 19:36:00,70.0,59.4,29.97,East,90,7.0,10.0,69,0.00,,BKN060,0.00,VWS V14.01,2013-08-09 01:36:00,
2013-08-08 19:42:00,70.0,59.4,29.97,East,90,5.0,10.0,69,0.00,,BKN060,0.00,VWS V14.01,2013-08-09 01:42:00,
2013-08-08 19:47:00,70.0,60.2,29.97,East,90,5.0,10.0,71,0.00,,BKN060,0.00,VWS V14.01,2013-08-09 01:47:00,
2013-08-08 19:52:00,70.0,60.2,29.97,East,90,5.0,10.0,71,0.00,,BKN060,0.00,VWS V14.01,2013-08-09 01:52:00,
2013-08-08 19:57:00,69.0,59.2,29.97,East,90,7.0,10.0,71,0.00,,BKN060,0.00,VWS V14.01,2013-08-09 01:57:00,
2013-08-08 20:02:00,69.0,59.2,29.97,East,90,6.0,8.0,71,0.00,,CLR,0.00,VWS V14.01,2013-08-09 02:02:00,
2013-08-08 20:07:00,69.0,59.2,29.97,East,90,7.0,9.0,71,0.00,,CLR,0.00,VWS V14.01,2013-08-09 02:07:00,
2013-08-08 20:12:00,69.0,59.2,29.98,East,90,7.0,9.0,71,0.00,,CLR,0.00,VWS V14.01,2013-08-09 02:12:00,
2013-08-08 20:17:00,69.0,59.6,29.98,East,90,5.0,9.0,72,0.00,,CLR,0.00,VWS V14.01,2013-08-09 02:17:00,
2013-08-08 20:23:00,69.0,59.6,29.98,ENE,67,6.0,9.0,72,0.00,,CLR,0.00,VWS V14.01,2013-08-09 02:23:00,
2013-08-08 20:28:00,69.0,59.2,29.98,ENE,67,9.0,10.0,71,0.00,,CLR,0.00,VWS V14.01,2013-08-09 02:28:00,
2013-08-08 20:33:00,69.0,59.6,29.98,NE,45,6.0,9.0,72,0.00,,CLR,0.00,VWS V14.01,2013-08-09 02:33:00,
2013-08-08 20:38:00,68.0,60.2,29.98,NE,45,5.0,9.0,76,0.00,,CLR,0.00,VWS V14.01,2013-08-09 02:38:00,
2013-08-08 20:43:00,68.0,61.2,29.99,NE,45,3.0,9.0,79,0.00,,CLR,0.00,VWS V14.01,2013-08-09 02:43:00,
2013-08-08 20:48:00,67.0,60.6,29.99,NE,45,2.0,9.0,80,0.00,,CLR,0.00,VWS V14.01,2013-08-09 02:48:00,
2013-08-08 20:53:00,67.0,60.3,30.00,NE,45,1.0,9.0,79,0.00,,CLR,0.00,VWS V14.01,2013-08-09 02:53:00,
2013-08-08 20:58:00,67.0,59.9,30.00,ENE,67,3.0,9.0,78,0.00,,BKN050,0.00,VWS V14.01,2013-08-09 02:58:00,
2013-08-08 21:03:00,67.0,59.9,30.00,ENE,67,4.0,6.0,78,0.00,,BKN050,0.00,VWS V14.01,2013-08-09 03:03:00,
2013-08-08 21:08:00,67.0,59.6,30.00,ENE,67,4.0,7.0,77,0.00,,BKN050,0.00,VWS V14.01,2013-08-09 03:08:00,
2013-08-08 21:13:00,67.0,59.9,30.00,East,90,6.0,7.0,78,0.00,,BKN050,0.00,VWS V14.01,2013-08-09 03:13:00,
2013-08-08 21:18:00,67.0,59.9,30.00,East,90,0.0,7.0,78,0.00,,BKN050,0.00,VWS V14.01,2013-08-09 03:18:00,
2013-08-08 21:23:00,67.0,60.3,30.01,East,90,0.0,7.0,79,0.00,,BKN050,0.00,VWS V14.01,2013-08-09 03:23:00,
2013-08-08 21:29:00,66.0,59.7,30.01,East,90,0.0,7.0,80,0.00,,BKN050,0.00,VWS V14.01,2013-08-09 03:29:00,
2013-08-08 21:34:00,66.0,59.7,30.01,East,90,0.0,0.0,80,0.00,,BKN050,0.00,VWS V14.01,2013-08-09 03:34:00,
2013-08-08 21:39:00,66.0,60.0,30.01,East,90,0.0,0.0,81,0.00,,BKN050,0.00,VWS V14.01,2013-08-09 03:39:00,
2013-08-08 21:44:00,66.0,60.3,30.03,East,90,0.0,0.0,82,0.00,,BKN050,0.00,VWS V14.01,2013-08-09 03:44:00,
2013-08-08 21:49:00,66.0,60.3,30.03,SE,135,0.0,1.0,82,0.00,,BKN050,0.00,VWS V14.01,2013-08-09 03:49:00,
2013-08-08 21:54:00,67.0,61.0,30.01,East,90,2.0,3.0,81,0.00,,BKN050,0.00,VWS V14.01,2013-08-09 03:54:00,
2013-08-08 21:59:00,67.0,61.0,30.01,East,90,3.0,4.0,81,0.00,,BKN050,0.00,VWS V14.01,2013-08-09 03:59:00,
2013-08-08 22:01:00,67.0,61.0,30.01,East,90,4.0,5.0,81,0.00,,CLR,0.00,VWS V14.01,2013-08-09 04:01:00,
2013-08-08 22:02:00,67.0,61.0,30.01,ESE,112,0.0,5.0,81,0.00,,CLR,0.00,VWS V14.01,2013-08-09 04:02:00,
2013-08-08 22:07:00,67.0,61.3,30.01,East,90,4.0,6.0,82,0.00,,CLR,0.00,VWS V14.01,2013-08-09 04:07:00,
2013-08-08 22:12:00,67.0,61.0,30.01,East,90,2.0,7.0,81,0.00,,CLR,0.00,VWS V14.01,2013-08-09 04:12:00,
2013-08-08 22:17:00,66.0,60.7,30.01,East,90,1.0,7.0,83,0.00,,CLR,0.00,VWS V14.01,2013-08-09 04:17:00,
2013-08-08 22:22:00,66.0,60.7,30.03,East,90,3.0,7.0,83,0.00,,CLR,0.00,VWS V14.01,2013-08-09 04:22:00,
2013-08-08 22:27:00,66.0,61.4,30.03,East,90,4.0,7.0,85,0.00,,CLR,0.00,VWS V14.01,2013-08-09 04:27:00,
2013-08-08 22:32:00,66.0,61.4,30.03,ESE,112,0.0,5.0,85,0.00,,CLR,0.00,VWS V14.01,2013-08-09 04:32:00,
2013-08-08 22:37:00,66.0,61.7,30.03,SE,135,0.0,5.0,86,0.00,,CLR,0.00,VWS V14.01,2013-08-09 04:37:00,
2013-08-08 22:42:00,66.0,61.7,30.03,East,90,0.0,5.0,86,0.00,,CLR,0.00,VWS V14.01,2013-08-09 04:42:00,
2013-08-08 22:47:00,65.0,61.0,30.03,ESE,112,0.0,5.0,87,0.00,,CLR,0.00,VWS V14.01,2013-08-09 04:47:00,
2013-08-08 22:52:00,66.0,61.7,30.03,East,90,0.0,5.0,86,0.00,,CLR,0.00,VWS V14.01,2013-08-09 04:52:00,
2013-08-08 22:57:00,65.0,61.0,30.03,East,90,1.0,5.0,87,0.00,,SCT048,0.00,VWS V14.01,2013-08-09 04:57:00,
2013-08-08 23:02:00,66.0,61.7,30.02,East,90,0.0,0.0,86,0.00,,SCT048,0.00,VWS V14.01,2013-08-09 05:02:00,
2013-08-08 23:07:00,65.0,61.0,30.02,SE,135,0.0,0.0,87,0.00,,SCT048,0.00,VWS V14.01,2013-08-09 05:07:00,
2013-08-08 23:12:00,65.0,61.0,30.03,SE,135,0.0,0.0,87,0.00,,SCT048,0.00,VWS V14.01,2013-08-09 05:12:00,
2013-08-08 23:17:00,65.0,61.4,30.03,SSE,157,0.0,0.0,88,0.00,,SCT048,0.00,VWS V14.01,2013-08-09 05:17:00,
2013-08-08 23:22:00,65.0,61.4,30.04,SSE,157,0.0,0.0,88,0.00,,SCT048,0.00,VWS V14.01,2013-08-09 05:22:00,
2013-08-08 23:27:00,65.0,61.4,30.04,South,180,0.0,3.0,88,0.00,,SCT048,0.00,VWS V14.01,2013-08-09 05:27:00,
2013-08-08 23:32:00,65.0,61.4,30.04,ESE,112,0.0,0.0,88,0.00,,SCT048,0.00,VWS V14.01,2013-08-09 05:32:00,
2013-08-08 23:37:00,65.0,61.4,30.04,East,90,0.0,2.0,88,0.00,,SCT048,0.00,VWS V14.01,2013-08-09 05:37:00,
2013-08-08 23:42:00,65.0,61.4,30.04,East,90,0.0,2.0,88,0.00,,SCT048,0.00,VWS V14.01,2013-08-09 05:42:00,
2013-08-08 23:47:00,65.0,61.0,30.04,East,90,0.0,2.0,87,0.00,,SCT048,0.00,VWS V14.01,2013-08-09 05:47:00,
2013-08-08 23:52:00,65.0,61.4,30.04,East,90,0.0,2.0,88,0.00,,SCT048,0.00,VWS V14.01,2013-08-09 05:52:00,
2013-08-08 23:57:00,65.0,61.4,30.04,East,90,0.0,2.0,88,0.00,,OVC050,0.00,VWS V14.01,2013-08-09 05:57:00,